Time;durP1;ratioP1;P1;durP2;ratioP2;P2;SDS_P1;SDS_P2;PMS_P1;PMS_P2;Temp;Humidity;BMP_temperature;BMP_pressure;BME280_temperature;BME280_humidity;BME280_pressure;Samples;Min_cycle;Max_cycle;Signal;HPM_P1;HPM_P2
2022/11/07 00:00:13;;;;;;;19.48;8.23;;;26.20;40.50;;;;;;5112627;27;20086;-60
2022/11/07 00:02:40;;;;;;;19.52;8.88;;;26.00;58.30;;;;;;5109980;27;20083;-60
2022/11/07 00:05:07;;;;;;;29.30;9.05;;;26.40;40.80;;;;;;5108545;28;20100;-62
2022/11/07 00:07:33;;;;;;;25.27;7.47;;;26.00;58.70;;;;;;5109098;28;20539;-62
2022/11/07 00:10:00;;;;;;;16.08;4.15;;;26.20;66.00;;;;;;5108095;28;20556;-62
2022/11/07 00:12:26;;;;;;;16.75;3.90;;;26.40;63.80;;;;;;5108715;27;20145;-62
2022/11/07 00:14:53;;;;;;;12.98;3.47;;;26.50;63.80;;;;;;5108276;27;20080;-62
2022/11/07 00:17:19;;;;;;;8.07;2.17;;;;;;;;;;5109471;27;20056;-64
2022/11/07 00:19:46;;;;;;;7.25;2.20;;;26.40;74.10;;;;;;5109979;28;20074;-62
2022/11/07 00:22:13;;;;;;;8.57;2.45;;;25.80;48.70;;;;;;5124828;27;20147;-59
2022/11/07 00:24:40;;;;;;;45.55;24.10;;;25.20;64.00;;;;;;5115507;27;20086;-59
2022/11/07 00:27:07;;;;;;;45.35;25.08;;;25.70;66.90;;;;;;5109102;28;20071;-62
2022/11/07 00:29:33;;;;;;;44.15;25.40;;;24.90;65.70;;;;;;5109928;28;20036;-62
2022/11/07 00:31:59;;;;;;;40.03;24.00;;;25.40;49.60;;;;;;5110579;28;20061;-61
2022/11/07 00:34:26;;;;;;;42.50;21.75;;;25.30;63.10;;;;;;5108124;28;20127;-60
2022/11/07 00:36:52;;;;;;;16.92;3.50;;;25.20;49.20;;;;;;5115975;27;20580;-62
2022/11/07 00:39:18;;;;;;;16.40;2.92;;;25.20;49.50;;;;;;5109782;27;20082;-62
2022/11/07 00:41:48;;;;;;;19.45;9.18;;;25.40;70.70;;;;;;5109356;28;20072;-62
2022/11/07 00:44:15;;;;;;;18.13;4.28;;;24.80;73.30;;;;;;5108611;28;20110;-61
2022/11/07 00:46:41;;;;;;;19.73;3.88;;;;;;;;;;5109314;27;20038;-61
2022/11/07 00:49:08;;;;;;;15.52;3.72;;;24.80;74.80;;;;;;5110596;28;20387;-61
2022/11/07 00:51:34;;;;;;;16.17;3.72;;;;;;;;;;5109117;28;20084;-63
2022/11/07 00:54:02;;;;;;;18.52;3.53;;;23.70;54.20;;;;;;5109353;28;20077;-63
2022/11/07 00:56:28;;;;;;;16.85;3.55;;;24.00;89.00;;;;;;5110780;28;20140;-60
2022/11/07 00:58:56;;;;;;;23.10;4.25;;;21.40;53.00;;;;;;5116767;27;20688;-58
2022/11/07 01:01:26;;;;;;;19.75;3.70;;;23.80;53.90;;;;;;5120273;27;20476;-61
2022/11/07 01:06:40;;;;;;;12.65;4.30;;;23.90;94.00;;;;;;5110857;27;20018;-62
2022/11/07 01:09:09;;;;;;;28.55;4.13;;;22.70;54.30;;;;;;5108650;28;20409;-61
2022/11/07 01:11:37;;;;;;;17.02;3.63;;;23.20;83.50;;;;;;5109843;28;20046;-62
2022/11/07 01:14:04;;;;;;;22.02;4.30;;;23.30;93.70;;;;;;5110176;28;20082;-63
2022/11/07 01:16:34;;;;;;;28.92;4.40;;;;;;;;;;5109929;28;20182;-59
2022/11/07 01:19:02;;;;;;;26.58;3.97;;;22.80;56.10;;;;;;5110913;28;20084;-63
2022/11/07 01:21:28;;;;;;;24.30;4.15;;;22.60;90.00;;;;;;5117782;27;20037;-62
2022/11/07 01:23:55;;;;;;;30.65;4.40;;;22.70;56.60;;;;;;5113545;27;20206;-63
2022/11/07 01:26:21;;;;;;;32.88;5.50;;;22.50;57.00;;;;;;5110598;28;20086;-59
2022/11/07 01:28:49;;;;;;;20.92;5.05;;;;;;;;;;5110020;28;20121;-58
2022/11/07 01:31:17;;;;;;;25.98;4.97;;;22.90;91.90;;;;;;5108792;28;20063;-60
2022/11/07 01:33:44;;;;;;;33.92;6.18;;;22.20;92.00;;;;;;5110457;28;20147;-58
2022/11/07 01:36:13;;;;;;;29.88;5.10;;;22.20;58.80;;;;;;5109590;28;20423;-59
2022/11/07 01:38:42;;;;;;;32.60;6.43;;;21.80;58.60;;;;;;5109066;28;20077;-61
2022/11/07 01:41:20;;;;;;;27.20;7.32;;;21.70;84.20;;;;;;5109710;28;20072;-60
2022/11/07 01:43:49;;;;;;;41.63;9.38;;;22.00;59.50;;;;;;5110228;28;20070;-60
2022/11/07 01:46:16;;;;;;;34.35;8.00;;;21.80;60.00;;;;;;5109411;28;20078;-58
2022/11/07 01:48:52;;;;;;;42.03;9.02;;;21.60;79.30;;;;;;5109032;28;20432;-60
2022/11/07 01:51:21;;;;;;;41.53;8.68;;;21.80;61.30;;;;;;5109765;28;20071;-59
2022/11/07 01:53:48;;;;;;;41.05;8.13;;;21.40;80.20;;;;;;5108177;28;20102;-59
2022/11/07 01:56:18;;;;;;;46.33;8.77;;;21.70;62.50;;;;;;5109965;28;20162;-60
2022/11/07 01:58:45;;;;;;;43.10;7.28;;;21.60;62.90;;;;;;5108837;28;20106;-61
2022/11/07 02:01:12;;;;;;;43.08;7.10;;;21.70;63.30;;;;;;5121197;28;20214;-59
2022/11/07 02:03:39;;;;;;;53.88;9.10;;;22.00;90.40;;;;;;5110145;28;20127;-57
2022/11/07 02:06:20;;;;;;;41.47;6.97;;;21.50;64.00;;;;;;5108934;28;20075;-61
2022/11/07 02:08:47;;;;;;;39.05;7.68;;;21.40;64.40;;;;;;5108916;28;20587;-61
2022/11/07 02:11:15;;;;;;;32.67;8.23;;;21.90;91.00;;;;;;5109872;28;20109;-59
2022/11/07 02:13:41;;;;;;;46.33;7.25;;;22.10;91.50;;;;;;5108943;28;20091;-60
2022/11/07 02:16:08;;;;;;;43.97;8.38;;;21.50;66.50;;;;;;5108628;28;20545;-60
2022/11/07 02:18:36;;;;;;;40.97;8.10;;;21.30;73.90;;;;;;5108489;28;20543;-58
2022/11/07 02:21:12;;;;;;;45.63;8.82;;;21.30;96.30;;;;;;5110496;28;20420;-59
2022/11/07 02:24:03;;;;;;;29.40;7.53;;;20.70;92.10;;;;;;5108644;28;20155;-59
2022/11/07 02:26:30;;;;;;;34.63;7.38;;;;;;;;;;5108418;28;20077;-61
2022/11/07 02:28:57;;;;;;;34.40;7.88;;;21.20;91.80;;;;;;5110065;28;20086;-58
2022/11/07 02:31:24;;;;;;;32.28;7.65;;;;;;;;;;5108665;28;20071;-57
2022/11/07 02:33:50;;;;;;;42.42;7.57;;;21.80;94.10;;;;;;5108981;28;20586;-58
2022/11/07 02:36:20;;;;;;;42.67;8.35;;;20.80;92.20;;;;;;5109695;28;20191;-60
2022/11/07 02:38:52;;;;;;;43.75;7.80;;;21.40;92.20;;;;;;5109737;28;20471;-60
2022/11/07 02:41:22;;;;;;;37.47;7.82;;;21.20;71.90;;;;;;5108793;28;20096;-62
2022/11/07 02:43:53;;;;;;;43.55;7.60;;;21.20;72.30;;;;;;5111760;28;20086;-60
2022/11/07 02:46:21;;;;;;;43.65;7.68;;;21.30;72.90;;;;;;5113157;28;20063;-58
2022/11/07 02:48:59;;;;;;;53.28;7.53;;;21.90;94.90;;;;;;5112514;28;20095;-59
2022/11/07 02:51:25;;;;;;;31.95;7.30;;;21.40;76.00;;;;;;5112369;28;20128;-62
2022/11/07 02:53:52;;;;;;;29.77;6.75;;;21.00;93.60;;;;;;5113544;28;20081;-62
2022/11/07 02:56:20;;;;;;;38.13;6.40;;;21.00;94.80;;;;;;5113681;27;20085;-62
2022/11/07 02:58:46;;;;;;;49.78;6.57;;;21.30;93.10;;;;;;5110898;27;20126;-57
2022/11/07 03:01:13;;;;;;;40.40;5.97;;;21.40;74.90;;;;;;5112457;28;20075;-59
2022/11/07 03:03:42;;;;;;;30.90;6.15;;;21.30;94.10;;;;;;5112854;28;20086;-62
2022/11/07 03:06:12;;;;;;;27.63;5.15;;;21.40;94.10;;;;;;5112393;27;20117;-58
2022/11/07 03:08:40;;;;;;;25.85;4.90;;;20.60;93.70;;;;;;5112044;27;20075;-62
2022/11/07 03:11:07;;;;;;;32.08;5.68;;;21.20;75.70;;;;;;5112774;28;20174;-58
2022/11/07 03:13:33;;;;;;;33.38;6.28;;;21.10;76.00;;;;;;5113223;27;20064;-63
2022/11/07 03:16:04;;;;;;;27.55;6.57;;;21.10;76.40;;;;;;5113522;27;20068;-62
2022/11/07 03:18:31;;;;;;;37.47;7.25;;;21.00;76.80;;;;;;5111578;28;20107;-61
2022/11/07 03:20:57;;;;;;;29.02;8.15;;;21.00;77.30;;;;;;5115994;27;20413;-60
2022/11/07 03:23:23;;;;;;;36.97;9.02;;;21.30;94.50;;;;;;5123655;27;20697;-59
2022/11/07 03:25:50;;;;;;;37.55;10.13;;;20.90;82.60;;;;;;5112938;28;20478;-59
2022/11/07 03:28:16;;;;;;;39.45;10.80;;;;;;;;;;5111828;27;20401;-60
2022/11/07 03:30:43;;;;;;;35.85;9.85;;;21.20;96.10;;;;;;5112823;27;20102;-62
2022/11/07 03:33:09;;;;;;;29.80;8.57;;;20.60;82.20;;;;;;5112632;27;20067;-58
2022/11/07 03:35:35;;;;;;;37.75;10.02;;;20.60;83.00;;;;;;5112159;28;20076;-61
2022/11/07 03:38:02;;;;;;;37.15;8.13;;;20.50;84.10;;;;;;5111758;28;20096;-59
2022/11/07 03:40:28;;;;;;;32.70;7.20;;;20.50;85.40;;;;;;5111747;27;20072;-59
2022/11/07 03:42:55;;;;;;;33.58;7.28;;;20.50;86.70;;;;;;5112087;28;20436;-58
2022/11/07 03:45:22;;;;;;;23.95;7.40;;;20.50;87.40;;;;;;5111123;27;20096;-59
2022/11/07 03:47:49;;;;;;;23.73;7.03;;;20.50;88.30;;;;;;5110652;28;20421;-60
2022/11/07 03:50:19;;;;;;;23.85;7.75;;;20.50;88.90;;;;;;5112700;27;20072;-59
2022/11/07 03:52:46;;;;;;;32.05;7.85;;;20.50;89.10;;;;;;5111875;27;20455;-58
2022/11/07 03:55:17;;;;;;;31.35;8.65;;;20.40;89.60;;;;;;5115686;27;20536;-59
2022/11/07 03:57:44;;;;;;;24.40;6.78;;;20.40;90.20;;;;;;5116731;27;20460;-62
2022/11/07 04:00:12;;;;;;;26.20;7.60;;;20.30;90.50;;;;;;5111744;28;20141;-57
2022/11/07 04:02:39;;;;;;;26.98;6.97;;;20.30;90.80;;;;;;5110910;28;20112;-59
2022/11/07 04:05:06;;;;;;;22.42;6.88;;;20.30;91.10;;;;;;5110273;27;20095;-59
2022/11/07 04:07:32;;;;;;;25.50;7.28;;;20.20;91.50;;;;;;5111469;27;20068;-59
2022/11/07 04:09:59;;;;;;;25.48;6.65;;;20.20;92.20;;;;;;5111587;27;20076;-60
2022/11/07 04:17:55;;;;;;;26.13;7.05;;;20.20;93.20;;;;;;5110959;28;20079;-62
2022/11/07 04:20:21;;;;;;;25.00;6.78;;;20.10;93.40;;;;;;5109417;27;20076;-61
2022/11/07 04:22:48;;;;;;;24.48;7.35;;;20.10;93.50;;;;;;5110137;28;20130;-58
2022/11/07 04:25:14;;;;;;;19.70;6.80;;;20.00;93.60;;;;;;5120615;27;20468;-60
2022/11/07 04:27:43;;;;;;;20.08;6.40;;;20.00;93.70;;;;;;5117027;27;20083;-59
2022/11/07 04:30:18;;;;;;;21.88;7.40;;;19.90;93.90;;;;;;5125388;27;20113;-56
2022/11/07 04:32:45;;;;;;;23.50;6.82;;;19.90;93.90;;;;;;5111398;27;20071;-59
2022/11/07 04:35:11;;;;;;;25.42;8.85;;;19.90;94.10;;;;;;5111215;28;20172;-58
2022/11/07 04:37:38;;;;;;;26.83;6.95;;;19.90;94.30;;;;;;5110121;28;20064;-59
2022/11/07 04:40:04;;;;;;;20.50;7.30;;;19.80;94.50;;;;;;5110085;28;20072;-62
2022/11/07 04:42:31;;;;;;;22.25;7.13;;;19.80;94.80;;;;;;5111392;28;20107;-57
2022/11/07 04:44:57;;;;;;;19.25;7.85;;;19.70;95.00;;;;;;5115581;27;20083;-62
2022/11/07 04:47:23;;;;;;;30.83;7.95;;;19.70;95.10;;;;;;5119938;27;20170;-63
2022/11/07 04:49:50;;;;;;;35.17;7.78;;;19.60;95.30;;;;;;5111019;28;20068;-59
2022/11/07 04:52:16;;;;;;;33.40;8.98;;;19.60;95.60;;;;;;5110169;28;20072;-62
2022/11/07 04:54:43;;;;;;;29.38;9.07;;;19.60;95.60;;;;;;5111278;28;20068;-59
2022/11/07 04:57:09;;;;;;;41.65;10.15;;;19.50;95.60;;;;;;5110511;28;20429;-60
2022/11/07 04:59:36;;;;;;;35.92;9.95;;;19.50;95.60;;;;;;5108216;28;20076;-57
2022/11/07 05:02:02;;;;;;;31.48;9.73;;;19.50;95.60;;;;;;5110155;28;20078;-64
2022/11/07 05:04:29;;;;;;;31.20;9.10;;;19.50;95.70;;;;;;5108506;28;20123;-61
2022/11/07 05:06:55;;;;;;;21.67;8.05;;;19.50;95.80;;;;;;5108631;28;20086;-62
2022/11/07 05:09:21;;;;;;;24.08;9.00;;;19.50;95.80;;;;;;5115432;27;20068;-61
2022/11/07 05:11:48;;;;;;;37.90;9.68;;;19.40;95.60;;;;;;5109891;27;20076;-61
2022/11/07 05:14:14;;;;;;;36.58;10.15;;;19.40;95.80;;;;;;5115298;27;20098;-59
2022/11/07 05:16:42;;;;;;;37.85;9.82;;;19.30;95.90;;;;;;5109836;27;20114;-59
2022/11/07 05:19:16;;;;;;;34.72;10.75;;;19.30;95.70;;;;;;5120552;27;20084;-59
2022/11/07 05:21:43;;;;;;;37.78;13.18;;;19.30;96.00;;;;;;5125682;27;20160;-62
2022/11/07 05:24:10;;;;;;;36.40;12.88;;;19.30;96.10;;;;;;5119171;27;20149;-62
2022/11/07 05:26:39;;;;;;;42.58;13.75;;;19.20;96.00;;;;;;5108809;28;20145;-61
2022/11/07 05:29:07;;;;;;;44.70;14.82;;;19.20;96.40;;;;;;5109324;28;20517;-57
2022/11/07 05:31:34;;;;;;;31.95;13.20;;;19.10;96.70;;;;;;5109034;28;20104;-59
2022/11/07 05:34:00;;;;;;;38.15;13.10;;;19.10;96.80;;;;;;5111464;27;20086;-59
2022/11/07 05:36:27;;;;;;;37.47;11.48;;;19.10;97.10;;;;;;5120840;27;20162;-60
2022/11/07 05:38:53;;;;;;;40.85;12.00;;;19.10;96.80;;;;;;5112040;27;20093;-59
2022/11/07 05:41:20;;;;;;;39.58;12.63;;;19.10;96.80;;;;;;5108939;28;20137;-62
2022/11/07 05:43:47;;;;;;;41.55;11.75;;;19.10;96.90;;;;;;5108492;28;20190;-61
2022/11/07 05:46:14;;;;;;;39.25;12.05;;;19.10;97.00;;;;;;5109333;28;20486;-60
2022/11/07 05:48:41;;;;;;;40.65;11.98;;;19.10;96.90;;;;;;5108808;28;20079;-63
2022/11/07 05:51:07;;;;;;;39.72;12.05;;;19.10;96.90;;;;;;5109858;28;20081;-63
2022/11/07 05:53:34;;;;;;;45.20;16.48;;;19.00;97.00;;;;;;5114276;28;20144;-62
2022/11/07 05:56:01;;;;;;;42.15;19.77;;;19.00;97.20;;;;;;5110262;28;20076;-59
2022/11/07 05:58:27;;;;;;;44.05;24.27;;;19.00;97.20;;;;;;5109263;28;20080;-62
2022/11/07 06:00:53;;;;;;;50.53;23.45;;;18.80;97.50;;;;;;5117347;28;20083;-63
2022/11/07 06:03:20;;;;;;;49.60;23.00;;;18.80;97.70;;;;;;5117464;28;20091;-62
2022/11/07 06:05:46;;;;;;;41.20;20.30;;;18.90;97.80;;;;;;5109231;28;20132;-58
2022/11/07 06:08:14;;;;;;;43.95;21.13;;;18.80;97.70;;;;;;5107896;28;20065;-62
2022/11/07 06:10:42;;;;;;;39.58;18.27;;;18.80;97.80;;;;;;5112037;28;20095;-67
2022/11/07 06:13:12;;;;;;;43.53;15.85;;;18.80;98.00;;;;;;5122584;27;20524;-59
2022/11/07 06:15:40;;;;;;;47.97;15.43;;;18.80;98.00;;;;;;5108489;28;20096;-65
2022/11/07 06:18:11;;;;;;;49.65;15.05;;;18.70;98.00;;;;;;5112084;28;20068;-63
2022/11/07 06:20:37;;;;;;;65.82;29.48;;;18.80;98.20;;;;;;5115698;27;20068;-65
2022/11/07 06:23:05;;;;;;;52.40;15.82;;;18.70;98.50;;;;;;5132357;27;20130;-65
2022/11/07 06:25:32;;;;;;;46.47;16.10;;;18.70;98.70;;;;;;5115759;27;20437;-62
2022/11/07 06:28:08;;;;;;;35.45;14.77;;;18.70;98.60;;;;;;5112821;28;20125;-64
2022/11/07 06:30:35;;;;;;;39.40;17.23;;;18.70;98.80;;;;;;5113978;27;20086;-65
2022/11/07 06:33:07;;;;;;;56.08;24.15;;;18.60;99.30;;;;;;5130430;27;20194;-62
2022/11/07 06:35:34;;;;;;;27.98;11.13;;;18.70;99.90;;;;;;5113906;27;20065;-63
2022/11/07 06:38:02;;;;;;;29.02;9.73;;;18.70;99.90;;;;;;5112330;28;20133;-64
2022/11/07 06:40:29;;;;;;;28.25;8.77;;;18.70;99.90;;;;;;5122540;27;20060;-65
2022/11/07 06:42:55;;;;;;;36.70;9.18;;;18.60;99.90;;;;;;5114808;27;20494;-62
2022/11/07 06:45:21;;;;;;;32.72;8.93;;;18.70;99.90;;;;;;5115508;27;20182;-65
2022/11/07 06:47:48;;;;;;;28.50;9.20;;;18.60;99.90;;;;;;5112714;27;20117;-67
2022/11/07 06:50:14;;;;;;;27.52;8.70;;;18.60;99.90;;;;;;5111859;27;20143;-68
2022/11/07 06:52:40;;;;;;;32.95;10.27;;;18.60;99.90;;;;;;5112396;27;20425;-64
2022/11/07 06:55:07;;;;;;;35.10;10.35;;;18.50;99.90;;;;;;5120930;27;20107;-68
2022/11/07 06:57:34;;;;;;;44.42;11.38;;;18.50;99.90;;;;;;5126544;27;20072;-64
2022/11/07 07:00:00;;;;;;;56.70;10.68;;;18.50;99.90;;;;;;5121698;27;20141;-65
2022/11/07 07:02:26;;;;;;;40.95;9.93;;;18.50;99.90;;;;;;5109939;27;20136;-65
2022/11/07 07:04:53;;;;;;;28.83;9.32;;;18.50;99.90;;;;;;5115394;27;20102;-66
2022/11/07 07:07:19;;;;;;;32.28;9.32;;;18.50;99.90;;;;;;5111597;28;20084;-65
2022/11/07 07:09:45;;;;;;;31.42;8.93;;;18.50;99.90;;;;;;5111733;28;20129;-65
2022/11/07 07:12:12;;;;;;;32.47;8.27;;;18.50;99.90;;;;;;5110604;28;20099;-66
2022/11/07 07:14:38;;;;;;;25.27;8.60;;;18.50;99.90;;;;;;5111960;27;20526;-67
2022/11/07 07:17:04;;;;;;;27.33;9.95;;;18.50;99.90;;;;;;5111260;27;20073;-67
2022/11/07 07:19:31;;;;;;;29.00;10.00;;;18.50;99.90;;;;;;5115826;27;20155;-66
2022/11/07 07:21:57;;;;;;;36.40;10.90;;;18.40;99.90;;;;;;5121845;27;20108;-64
2022/11/07 07:24:23;;;;;;;20.08;10.25;;;18.40;99.90;;;;;;5127241;27;20139;-66
2022/11/07 07:26:50;;;;;;;19.88;10.80;;;18.40;99.90;;;;;;5119176;27;20106;-66
2022/11/07 07:29:16;;;;;;;29.10;11.38;;;18.40;99.90;;;;;;5123319;27;20064;-65
2022/11/07 07:31:42;;;;;;;21.33;11.00;;;18.30;99.90;;;;;;5123451;27;20068;-65
2022/11/07 07:34:09;;;;;;;18.85;11.48;;;18.40;99.90;;;;;;5125961;27;20425;-66
2022/11/07 07:36:35;;;;;;;23.23;12.52;;;18.40;99.90;;;;;;5124774;27;20144;-65
2022/11/07 07:39:02;;;;;;;27.20;13.65;;;18.40;99.90;;;;;;5120138;27;20072;-65
2022/11/07 07:41:28;;;;;;;25.10;12.85;;;18.30;99.90;;;;;;5119249;27;20075;-66
2022/11/07 07:43:54;;;;;;;28.55;14.40;;;18.20;99.90;;;;;;5118181;27;20165;-67
2022/11/07 07:46:22;;;;;;;27.33;14.40;;;18.20;99.90;;;;;;5123827;27;20072;-65
2022/11/07 07:48:48;;;;;;;27.48;13.90;;;18.20;99.90;;;;;;5121695;27;20429;-66
2022/11/07 07:51:15;;;;;;;26.27;14.60;;;18.20;99.90;;;;;;5116531;27;20525;-65
2022/11/07 07:53:41;;;;;;;36.92;15.38;;;18.20;99.90;;;;;;5122407;27;20083;-66
2022/11/07 07:56:08;;;;;;;24.58;14.80;;;18.20;99.90;;;;;;5119866;27;20136;-65
2022/11/07 07:58:34;;;;;;;31.25;17.40;;;18.20;99.90;;;;;;5123514;27;20443;-66
2022/11/07 08:01:02;;;;;;;29.02;18.55;;;18.10;99.90;;;;;;5125358;27;20086;-67
2022/11/07 08:03:28;;;;;;;44.42;21.80;;;18.10;99.90;;;;;;5120965;27;21747;-67
2022/11/07 08:05:57;;;;;;;40.20;23.15;;;18.10;99.90;;;;;;5119449;27;20470;-65
2022/11/07 08:08:24;;;;;;;36.83;20.80;;;18.00;99.90;;;;;;5117663;27;20500;-67
2022/11/07 08:10:54;;;;;;;38.33;22.45;;;18.00;99.90;;;;;;5117982;27;20174;-66
2022/11/07 08:13:23;;;;;;;44.65;32.92;;;17.90;99.90;;;;;;5119522;27;20128;-65
2022/11/07 08:15:51;;;;;;;38.08;20.77;;;18.00;99.90;;;;;;5119297;27;20118;-65
2022/11/07 08:18:20;;;;;;;29.90;19.45;;;17.90;99.90;;;;;;5122966;27;20075;-64
2022/11/07 08:20:51;;;;;;;28.42;19.95;;;17.90;99.90;;;;;;5119621;27;20133;-66
2022/11/07 08:23:18;;;;;;;32.30;20.17;;;17.80;99.90;;;;;;5122903;27;20154;-66
2022/11/07 08:25:52;;;;;;;33.60;21.30;;;17.80;99.90;;;;;;5124050;27;20493;-66
2022/11/07 08:28:20;;;;;;;32.47;21.30;;;17.90;99.90;;;;;;5119656;27;20596;-66
2022/11/07 08:31:01;;;;;;;38.67;20.80;;;17.90;99.90;;;;;;5119799;27;20486;-66
2022/11/07 08:33:28;;;;;;;32.80;21.15;;;17.90;99.90;;;;;;5120182;27;20100;-67
2022/11/07 08:35:59;;;;;;;41.83;21.55;;;17.90;99.90;;;;;;5121360;27;20571;-66
2022/11/07 08:38:26;;;;;;;35.35;22.27;;;17.80;99.90;;;;;;5117335;27;20549;-65
2022/11/07 08:40:53;;;;;;;35.88;22.67;;;17.70;99.90;;;;;;5120605;27;20496;-66
2022/11/07 08:43:20;;;;;;;35.33;22.13;;;17.60;99.90;;;;;;5117693;27;20068;-67
2022/11/07 08:45:48;;;;;;;38.53;21.50;;;17.60;99.90;;;;;;5116806;27;20168;-66
2022/11/07 08:48:15;;;;;;;35.50;20.83;;;17.60;99.90;;;;;;5122219;27;20067;-65
2022/11/07 08:50:42;;;;;;;32.40;19.30;;;17.60;99.90;;;;;;5117991;27;20564;-67
2022/11/07 08:53:09;;;;;;;34.42;20.85;;;17.60;99.90;;;;;;5122731;27;20503;-66
2022/11/07 08:55:35;;;;;;;32.28;19.60;;;17.60;99.90;;;;;;5122628;27;20111;-65
2022/11/07 08:58:04;;;;;;;30.90;19.50;;;17.50;99.90;;;;;;5118903;27;20524;-66
2022/11/07 09:00:31;;;;;;;32.78;19.40;;;17.50;99.90;;;;;;5122854;27;20084;-66
2022/11/07 09:03:07;;;;;;;29.45;19.48;;;17.50;99.90;;;;;;5119325;27;20087;-66
2022/11/07 09:05:34;;;;;;;33.05;19.52;;;17.50;99.90;;;;;;5111551;27;20092;-65
2022/11/07 09:08:00;;;;;;;37.78;19.60;;;17.50;99.90;;;;;;5116737;27;20068;-64
2022/11/07 09:10:27;;;;;;;32.30;18.33;;;17.50;99.90;;;;;;5115294;27;20090;-66
2022/11/07 09:12:53;;;;;;;31.60;17.58;;;17.50;99.90;;;;;;5118006;27;20072;-64
2022/11/07 09:15:20;;;;;;;26.63;16.25;;;17.40;99.90;;;;;;5119647;27;20094;-65
2022/11/07 09:17:47;;;;;;;24.67;15.52;;;17.40;99.90;;;;;;5119063;27;20068;-66
2022/11/07 09:20:14;;;;;;;27.08;15.82;;;17.40;99.90;;;;;;5122832;27;20796;-64
2022/11/07 09:22:40;;;;;;;38.63;17.50;;;17.30;99.90;;;;;;5112590;27;20111;-65
2022/11/07 09:25:07;;;;;;;26.20;17.65;;;17.30;99.90;;;;;;5123420;27;20083;-64
2022/11/07 09:27:34;;;;;;;30.35;18.08;;;17.30;99.90;;;;;;5120997;27;20087;-66
2022/11/07 09:30:01;;;;;;;29.73;17.58;;;17.30;99.90;;;;;;5117984;27;20116;-64
2022/11/07 09:32:28;;;;;;;25.73;15.60;;;17.30;99.90;;;;;;5120975;27;20064;-65
2022/11/07 09:34:54;;;;;;;27.02;15.63;;;17.20;99.90;;;;;;5122351;27;20166;-65
2022/11/07 09:37:20;;;;;;;33.67;15.23;;;17.20;99.90;;;;;;5120741;27;20495;-64
2022/11/07 09:39:48;;;;;;;28.15;14.88;;;17.20;99.90;;;;;;5118556;28;20087;-66
2022/11/07 09:43:04;;;;;;;26.77;16.08;;;17.20;99.90;;;;;;5118703;28;20559;-63
2022/11/07 09:45:42;;;;;;;29.02;16.42;;;17.20;99.90;;;;;;5102146;28;20168;-66
2022/11/07 09:48:19;;;;;;;28.77;15.52;;;17.20;99.90;;;;;;5122752;28;20075;-64
2022/11/07 09:50:48;;;;;;;27.58;14.45;;;17.20;99.90;;;;;;5119227;27;20067;-65
2022/11/07 09:53:32;;;;;;;25.52;15.15;;;17.10;99.90;;;;;;5119346;27;20083;-64
2022/11/07 09:56:02;;;;;;;26.52;13.95;;;17.00;99.90;;;;;;5123155;27;20117;-67
2022/11/07 09:58:50;;;;;;;30.65;15.30;;;17.00;99.90;;;;;;5128836;27;20409;-65
2022/11/07 10:01:19;;;;;;;21.95;14.07;;;17.10;99.90;;;;;;5124661;27;20087;-65
2022/11/07 10:03:46;;;;;;;24.00;14.93;;;17.10;99.90;;;;;;5124059;27;20124;-64
2022/11/07 10:06:26;;;;;;;28.95;14.93;;;17.10;99.90;;;;;;5121402;27;20068;-64
2022/11/07 10:09:12;;;;;;;23.63;12.55;;;17.00;99.90;;;;;;5121661;27;20072;-64
2022/11/07 10:11:55;;;;;;;19.40;12.32;;;17.00;99.90;;;;;;5118738;27;20065;-65
2022/11/07 10:14:28;;;;;;;26.00;13.25;;;17.00;99.90;;;;;;5127818;27;20103;-66
2022/11/07 10:17:02;;;;;;;22.02;11.80;;;17.00;99.90;;;;;;5121130;27;20090;-65
2022/11/07 10:19:47;;;;;;;19.42;12.85;;;17.00;99.90;;;;;;5126997;27;20095;-66
2022/11/07 10:22:20;;;;;;;22.38;12.40;;;17.00;99.90;;;;;;5117689;27;20518;-67
2022/11/07 10:25:29;;;;;;;22.05;14.05;;;17.00;99.90;;;;;;5125466;27;20396;-66
2022/11/07 10:28:24;;;;;;;28.27;13.65;;;17.00;99.90;;;;;;5125004;27;20075;-66
2022/11/07 10:30:53;;;;;;;26.85;13.57;;;17.00;99.90;;;;;;5126279;27;20316;-66
2022/11/07 10:33:32;;;;;;;28.17;13.55;;;17.00;99.90;;;;;;5120790;27;20080;-65
2022/11/07 10:36:09;;;;;;;21.20;12.82;;;17.00;99.90;;;;;;5126162;27;20127;-66
2022/11/07 10:38:41;;;;;;;21.02;13.05;;;17.00;99.90;;;;;;5117399;27;20076;-66
2022/11/07 10:41:18;;;;;;;22.38;13.30;;;17.00;99.90;;;;;;5127560;27;20147;-65
2022/11/07 10:43:52;;;;;;;21.65;13.35;;;16.90;99.90;;;;;;5120767;27;20088;-66
2022/11/07 10:46:26;;;;;;;29.33;16.00;;;16.90;99.90;;;;;;5122489;27;20435;-63
2022/11/07 10:49:00;;;;;;;22.77;15.27;;;16.90;99.90;;;;;;5123516;27;20121;-63
2022/11/07 10:51:37;;;;;;;25.67;14.57;;;16.90;99.90;;;;;;5121324;27;20076;-64
2022/11/07 10:54:26;;;;;;;29.33;16.00;;;16.90;99.90;;;;;;5123136;27;20412;-65
2022/11/07 10:57:10;;;;;;;26.10;15.25;;;16.90;99.90;;;;;;5119937;27;20075;-66
2022/11/07 10:59:44;;;;;;;28.65;16.13;;;16.90;99.90;;;;;;5122602;27;20072;-67
2022/11/07 11:02:30;;;;;;;30.50;17.35;;;16.90;99.90;;;;;;5119153;27;20540;-65
2022/11/07 11:05:01;;;;;;;27.98;16.77;;;16.90;99.90;;;;;;5123101;27;20112;-63
2022/11/07 11:07:38;;;;;;;26.08;16.92;;;16.80;99.90;;;;;;5128724;27;20114;-65
2022/11/07 11:10:20;;;;;;;26.55;18.27;;;16.70;99.90;;;;;;5122296;27;20155;-66
2022/11/07 11:12:48;;;;;;;35.80;21.73;;;16.60;99.90;;;;;;5120846;27;20492;-64
2022/11/07 11:15:19;;;;;;;44.70;30.58;;;16.60;99.90;;;;;;5123648;27;20083;-67
2022/11/07 11:17:46;;;;;;;51.38;35.45;;;16.60;99.90;;;;;;5121684;27;20683;-64
2022/11/07 11:20:34;;;;;;;37.35;29.05;;;16.60;99.90;;;;;;5125075;27;20148;-67
2022/11/07 11:23:05;;;;;;;41.05;28.15;;;16.60;99.90;;;;;;5123841;27;20122;-66
2022/11/07 11:25:41;;;;;;;39.28;26.27;;;16.60;99.90;;;;;;5122497;27;20092;-65
2022/11/07 11:28:19;;;;;;;37.25;24.60;;;16.50;99.90;;;;;;5124199;27;20068;-65
2022/11/07 11:30:50;;;;;;;41.97;24.27;;;16.50;99.90;;;;;;5122948;27;20431;-66
2022/11/07 11:33:24;;;;;;;37.45;25.90;;;16.50;99.90;;;;;;5123746;27;20164;-66
2022/11/07 11:36:03;;;;;;;34.53;22.75;;;16.50;99.90;;;;;;5118789;27;20278;-65
2022/11/07 11:38:36;;;;;;;32.88;22.90;;;16.50;99.90;;;;;;5117996;27;20072;-67
2022/11/07 11:41:41;;;;;;;31.20;21.17;;;16.50;99.90;;;;;;5121303;27;20064;-66
2022/11/07 11:44:34;;;;;;;35.00;22.70;;;16.40;99.90;;;;;;5122987;27;20092;-66
2022/11/07 11:47:27;;;;;;;33.72;21.02;;;16.40;99.90;;;;;;5119661;27;20075;-67
2022/11/07 11:50:04;;;;;;;41.35;22.52;;;16.30;99.90;;;;;;5122269;27;20108;-64
2022/11/07 11:52:30;;;;;;;36.40;22.85;;;16.30;99.90;;;;;;5121349;27;20068;-65
2022/11/07 11:54:58;;;;;;;31.55;22.08;;;16.30;99.90;;;;;;5121142;27;20118;-65
2022/11/07 11:58:12;;;;;;;37.97;23.85;;;16.40;99.90;;;;;;5121803;27;20090;-66
2022/11/07 12:00:56;;;;;;;34.17;21.58;;;16.30;99.90;;;;;;5100847;27;20084;-65
2022/11/07 12:03:32;;;;;;;33.90;22.90;;;16.30;99.90;;;;;;5122863;27;20148;-65
2022/11/07 12:06:26;;;;;;;40.22;27.48;;;16.20;99.90;;;;;;5118752;27;20068;-65
2022/11/07 12:09:18;;;;;;;48.13;31.45;;;16.20;99.90;;;;;;5114731;27;20067;-66
2022/11/07 12:12:00;;;;;;;74.63;46.03;;;16.20;99.90;;;;;;5107115;27;20084;-66
2022/11/07 12:14:49;;;;;;;70.00;49.42;;;16.20;99.90;;;;;;5121217;27;20092;-66
2022/11/07 12:17:40;;;;;;;70.28;53.10;;;16.20;99.90;;;;;;5118974;27;20091;-66
2022/11/07 12:20:29;;;;;;;81.28;59.42;;;16.20;99.90;;;;;;5119970;27;20088;-64
2022/11/07 12:23:14;;;;;;;85.25;66.13;;;16.20;99.90;;;;;;5119465;27;20108;-65
2022/11/07 12:25:47;;;;;;;86.93;64.55;;;16.10;99.90;;;;;;5123901;27;20084;-65
2022/11/07 12:28:22;;;;;;;76.20;57.08;;;16.00;99.90;;;;;;5125825;27;20150;-65
2022/11/07 12:31:06;;;;;;;67.07;50.45;;;16.00;99.90;;;;;;5122729;27;20151;-65
2022/11/07 12:33:44;;;;;;;63.00;45.97;;;16.00;99.90;;;;;;5122501;27;20076;-66
2022/11/07 12:36:28;;;;;;;66.50;41.75;;;16.00;99.90;;;;;;5120879;27;20120;-66
2022/11/07 12:39:23;;;;;;;61.53;44.83;;;16.10;99.90;;;;;;5120268;27;20082;-66
2022/11/07 12:41:58;;;;;;;61.65;43.40;;;16.10;99.90;;;;;;5120982;27;20075;-65
2022/11/07 12:44:51;;;;;;;56.65;39.22;;;16.00;99.90;;;;;;5118315;27;20115;-67
2022/11/07 12:47:41;;;;;;;61.35;41.78;;;16.10;99.90;;;;;;5116640;27;20601;-65
2022/11/07 12:50:30;;;;;;;64.85;43.83;;;16.00;99.90;;;;;;5120850;27;20099;-65
2022/11/07 12:53:24;;;;;;;64.50;41.72;;;16.00;99.90;;;;;;5120125;27;20069;-66
2022/11/07 12:56:02;;;;;;;68.57;43.33;;;16.00;99.90;;;;;;5078096;27;20084;-67
2022/11/07 12:58:31;;;;;;;65.45;40.75;;;16.00;99.90;;;;;;5117554;27;20093;-67